createdAt,value
2016-05-31T00:00:58.127Z,997.66
2016-05-31T00:01:58.114Z,997.64
2016-05-31T00:02:58.117Z,997.6
2016-05-31T00:03:58.088Z,997.65
2016-05-31T00:04:58.075Z,997.66
2016-05-31T00:05:58.063Z,997.67
2016-05-31T00:06:58.018Z,997.65
2016-05-31T00:07:58.005Z,997.66
2016-05-31T00:08:57.977Z,997.66
2016-05-31T00:10:58.138Z,997.65
2016-05-31T00:11:57.938Z,997.66
2016-05-31T00:12:57.893Z,997.65
2016-05-31T00:13:57.896Z,997.69
2016-05-31T00:14:57.899Z,997.65
2016-05-31T00:15:58.105Z,997.67
2016-05-31T00:17:57.937Z,997.68
2016-05-31T00:18:57.816Z,997.66
2016-05-31T00:19:57.773Z,997.65
2016-05-31T00:20:57.743Z,997.66
2016-05-31T00:22:57.826Z,997.69
2016-05-31T00:23:57.703Z,997.71
2016-05-31T00:24:57.661Z,997.67
2016-05-31T00:25:57.647Z,997.69
2016-05-31T00:31:07.567Z,997.71
2016-05-31T00:32:07.179Z,997.71
2016-05-31T00:33:06.947Z,997.73
2016-05-31T00:34:06.919Z,997.72
2016-05-31T00:35:06.891Z,997.74
2016-05-31T00:36:06.830Z,997.73
2016-05-31T00:37:06.864Z,997.77
2016-05-31T00:38:06.851Z,997.72
2016-05-31T00:39:06.824Z,997.74
2016-05-31T00:40:06.794Z,997.74
2016-05-31T00:41:06.796Z,997.75
2016-05-31T00:42:06.752Z,997.76
2016-05-31T00:43:06.740Z,997.75
2016-05-31T00:44:06.712Z,997.71
2016-05-31T00:45:06.682Z,997.75
2016-05-31T00:46:06.998Z,997.73
2016-05-31T00:47:06.641Z,997.78
2016-05-31T00:49:06.632Z,997.77
2016-05-31T00:50:06.603Z,997.74
2016-05-31T00:51:06.573Z,997.77
2016-05-31T00:52:06.546Z,997.77
2016-05-31T00:55:06.491Z,997.74
2016-05-31T00:56:06.509Z,997.74
2016-05-31T00:57:06.450Z,997.77
2016-05-31T00:58:06.436Z,997.8
2016-05-31T01:00:06.395Z,997.77
2016-05-31T01:01:06.319Z,997.8
2016-05-31T01:02:06.353Z,997.78
2016-05-31T01:05:06.283Z,997.82
2016-05-31T01:07:07.680Z,997.82
2016-05-31T01:08:06.244Z,997.82
2016-05-31T01:09:06.247Z,997.83
2016-05-31T01:10:06.219Z,997.79
2016-05-31T01:11:06.159Z,997.78
2016-05-31T01:12:06.162Z,997.76
2016-05-31T01:13:06.133Z,997.75
2016-05-31T01:15:06.107Z,997.75
2016-05-31T01:16:06.376Z,997.76
2016-05-31T01:17:06.003Z,997.74
2016-05-31T01:18:06.037Z,997.75
2016-05-31T01:19:06.024Z,997.77
2016-05-31T01:20:05.995Z,997.77
2016-05-31T01:21:05.967Z,997.86
2016-05-31T01:22:05.939Z,997.85
2016-05-31T01:23:06.441Z,997.87
2016-05-31T01:24:05.898Z,997.89
2016-05-31T01:25:05.900Z,997.9
2016-05-31T01:26:05.903Z,997.93
2016-05-31T01:27:06.045Z,997.94
2016-05-31T01:29:05.801Z,997.96
2016-05-31T01:30:05.789Z,997.96
2016-05-31T01:31:05.775Z,997.99
2016-05-31T01:32:05.794Z,997.99
2016-05-31T01:33:05.749Z,998
2016-05-31T01:34:05.722Z,998
2016-05-31T01:35:05.677Z,998.06
2016-05-31T01:37:05.714Z,998.05
2016-05-31T01:40:06.190Z,998.07
2016-05-31T01:41:08.568Z,998.1
2016-05-31T01:42:05.538Z,998.12
2016-05-31T01:43:05.573Z,998.08
2016-05-31T01:44:05.498Z,998.12
2016-05-31T01:45:05.485Z,998.16
2016-05-31T01:46:05.471Z,998.15
2016-05-31T01:47:05.443Z,998.15
2016-05-31T01:48:05.415Z,998.16
2016-05-31T01:49:05.418Z,998.14
2016-05-31T01:50:05.389Z,998.18
2016-05-31T01:51:05.360Z,998.16
2016-05-31T01:52:05.348Z,998.16
2016-05-31T01:53:05.318Z,998.17
2016-05-31T01:54:05.259Z,998.16
2016-05-31T01:55:05.278Z,998.14
2016-05-31T01:56:05.812Z,998.19
2016-05-31T01:57:05.236Z,998.17
2016-05-31T01:58:05.223Z,998.21
2016-05-31T01:59:05.194Z,998.21
2016-05-31T02:01:05.169Z,998.21
2016-05-31T02:03:05.095Z,998.28
2016-05-31T02:05:05.100Z,998.24
2016-05-31T02:06:05.042Z,998.24
2016-05-31T02:08:05.015Z,998.21
2016-05-31T02:09:04.986Z,998.2
2016-05-31T02:10:04.989Z,998.23
2016-05-31T02:11:04.961Z,998.2
2016-05-31T02:14:05.157Z,998.23
2016-05-31T02:15:04.878Z,998.26
2016-05-31T02:16:07.880Z,998.27
2016-05-31T02:17:05.430Z,998.26
2016-05-31T02:18:04.793Z,998.22
2016-05-31T02:19:04.780Z,998.27
2016-05-31T02:20:04.766Z,998.27
2016-05-31T02:21:04.738Z,998.33
2016-05-31T02:22:04.740Z,998.31
2016-05-31T02:23:04.712Z,998.35
2016-05-31T02:24:04.684Z,998.35
2016-05-31T02:25:04.624Z,998.35
2016-05-31T02:26:04.643Z,998.39
2016-05-31T02:27:04.614Z,998.34
2016-05-31T02:29:04.588Z,998.36
2016-05-31T02:30:04.575Z,998.39
2016-05-31T02:31:04.546Z,998.42
2016-05-31T02:32:04.736Z,998.39
2016-05-31T02:33:04.505Z,998.45
2016-05-31T02:34:04.492Z,998.47
2016-05-31T02:35:04.464Z,998.45
2016-05-31T02:36:04.434Z,998.43
2016-05-31T02:37:04.437Z,998.44
2016-05-31T02:38:04.346Z,998.42
2016-05-31T02:39:04.458Z,998.42
2016-05-31T02:40:04.352Z,998.44
2016-05-31T02:41:04.338Z,998.45
2016-05-31T02:42:04.310Z,998.44
2016-05-31T02:43:04.297Z,998.49
2016-05-31T02:44:04.222Z,998.45
2016-05-31T02:45:04.271Z,998.46
2016-05-31T02:48:04.185Z,998.45
2016-05-31T02:49:04.188Z,998.5
2016-05-31T02:50:04.410Z,998.49
2016-05-31T02:52:05.524Z,998.53
2016-05-31T02:53:04.090Z,998.53
2016-05-31T02:54:04.264Z,998.6
2016-05-31T02:55:04.079Z,998.55
2016-05-31T02:56:04.051Z,998.54
2016-05-31T02:57:04.023Z,998.55
2016-05-31T02:58:04.040Z,998.56
2016-05-31T02:59:03.996Z,998.56
2016-05-31T03:00:03.952Z,998.58
2016-05-31T03:01:03.940Z,998.58
2016-05-31T03:03:03.882Z,998.6
2016-05-31T03:04:03.869Z,998.66
2016-05-31T03:05:03.856Z,998.69
2016-05-31T03:06:03.828Z,998.68
2016-05-31T03:07:03.814Z,998.66
2016-05-31T03:08:04.068Z,998.72
2016-05-31T03:09:03.758Z,998.74
2016-05-31T03:10:03.745Z,998.72
2016-05-31T03:11:03.716Z,998.74
2016-05-31T03:12:03.702Z,998.75
2016-05-31T03:13:03.941Z,998.76
2016-05-31T03:14:03.693Z,998.76
2016-05-31T03:15:03.664Z,998.74
2016-05-31T03:16:03.621Z,998.73
2016-05-31T03:18:03.579Z,998.8
2016-05-31T03:19:03.769Z,998.81
2016-05-31T03:20:03.537Z,998.81
2016-05-31T03:21:03.509Z,998.91
2016-05-31T03:22:03.496Z,998.86
2016-05-31T03:27:03.462Z,998.93
2016-05-31T03:28:03.370Z,998.93
2016-05-31T03:29:03.343Z,998.93
2016-05-31T03:30:03.283Z,998.91
2016-05-31T03:31:03.317Z,998.91
2016-05-31T03:32:03.304Z,998.91
2016-05-31T03:33:03.275Z,998.92
2016-05-31T03:34:03.247Z,998.96
2016-05-31T03:35:03.218Z,998.96
2016-05-31T03:36:03.221Z,998.98
2016-05-31T03:37:03.192Z,998.98
2016-05-31T03:38:03.773Z,999.02
2016-05-31T03:39:03.151Z,999.05
2016-05-31T03:40:03.122Z,999
2016-05-31T03:41:03.109Z,999.04
2016-05-31T03:42:03.033Z,999
2016-05-31T03:43:03.068Z,999
2016-05-31T03:44:03.055Z,999.02
2016-05-31T03:45:03.041Z,999.01
2016-05-31T03:46:03.014Z,999.05
2016-05-31T03:47:02.985Z,999.01
2016-05-31T03:49:02.944Z,999.03
2016-05-31T03:50:02.915Z,999.04
2016-05-31T03:51:02.901Z,999.05
2016-05-31T03:52:02.874Z,999.03
2016-05-31T03:53:02.860Z,999.02
2016-05-31T03:54:02.848Z,999.04
2016-05-31T03:56:02.821Z,999.04
2016-05-31T03:58:02.702Z,999.09
2016-05-31T04:00:03.582Z,999.13
2016-05-31T04:01:04.131Z,999.11
2016-05-31T04:02:02.666Z,999.1
2016-05-31T04:03:03.059Z,999.13
2016-05-31T04:04:02.624Z,999.13
2016-05-31T04:05:02.628Z,999.08
2016-05-31T04:06:02.598Z,999.11
2016-05-31T04:08:02.541Z,999.16
2016-05-31T04:09:02.529Z,999.23
2016-05-31T04:10:02.516Z,999.25
2016-05-31T04:11:02.439Z,999.24
2016-05-31T04:12:02.459Z,999.28
2016-05-31T04:14:02.432Z,999.24
2016-05-31T04:15:02.419Z,999.22
2016-05-31T04:16:02.391Z,999.23
2016-05-31T04:17:02.378Z,999.26
2016-05-31T04:18:02.349Z,999.22
2016-05-31T04:19:02.336Z,999.22
2016-05-31T04:20:02.293Z,999.14
2016-05-31T04:21:02.279Z,999.16
2016-05-31T04:23:02.254Z,999.15
2016-05-31T04:25:02.165Z,999.15
2016-05-31T04:26:02.184Z,999.14
2016-05-31T04:27:02.171Z,999.15
2016-05-31T04:28:02.157Z,999.14
2016-05-31T04:29:02.144Z,999.19
2016-05-31T04:30:02.100Z,999.18
2016-05-31T04:31:02.104Z,999.17
2016-05-31T04:32:02.075Z,999.19
2016-05-31T04:33:02.030Z,999.2
2016-05-31T04:34:02.034Z,999.25
2016-05-31T04:36:01.991Z,999.25
2016-05-31T04:38:02.137Z,999.23
2016-05-31T04:39:01.922Z,999.25
2016-05-31T04:40:01.939Z,999.26
2016-05-31T04:41:02.084Z,999.26
2016-05-31T04:42:01.867Z,999.28
2016-05-31T04:43:01.838Z,999.29
2016-05-31T04:44:01.763Z,999.26
2016-05-31T04:45:01.781Z,999.26
2016-05-31T04:46:01.784Z,999.27
2016-05-31T04:47:01.740Z,999.26
2016-05-31T04:48:01.743Z,999.26
2016-05-31T04:49:01.714Z,999.26
2016-05-31T04:50:01.701Z,999.24
2016-05-31T04:51:01.672Z,999.28
2016-05-31T04:52:01.644Z,999.26
2016-05-31T04:53:01.632Z,999.24
2016-05-31T04:54:01.602Z,999.24
2016-05-31T04:55:01.590Z,999.25
2016-05-31T04:56:01.560Z,999.29
2016-05-31T04:57:01.548Z,999.31
2016-05-31T04:58:01.566Z,999.36
2016-05-31T04:59:01.522Z,999.33
2016-05-31T05:00:01.479Z,999.34
2016-05-31T05:01:01.465Z,999.32
2016-05-31T05:02:01.483Z,999.34
2016-05-31T05:03:01.440Z,999.34
2016-05-31T05:04:01.411Z,999.33
2016-05-31T05:05:01.382Z,999.33
2016-05-31T05:06:01.353Z,999.36
2016-05-31T05:07:01.357Z,999.4
2016-05-31T05:08:01.328Z,999.46
2016-05-31T05:10:01.302Z,999.5
2016-05-31T05:12:01.261Z,999.51
2016-05-31T05:14:02.547Z,999.51
2016-05-31T05:15:02.597Z,999.57
2016-05-31T05:16:01.161Z,999.56
2016-05-31T05:17:01.133Z,999.63
2016-05-31T05:18:01.119Z,999.62
2016-05-31T05:19:01.123Z,999.62
2016-05-31T05:20:01.063Z,999.64
2016-05-31T05:21:01.050Z,999.66
2016-05-31T05:22:01.052Z,999.66
2016-05-31T05:23:01.508Z,999.69
2016-05-31T05:24:01.011Z,999.7
2016-05-31T05:25:00.982Z,999.71
2016-05-31T05:26:00.954Z,999.69
2016-05-31T05:27:00.941Z,999.71
2016-05-31T05:28:00.866Z,999.76
2016-05-31T05:29:00.946Z,999.77
2016-05-31T05:30:00.887Z,999.75
2016-05-31T05:31:00.827Z,999.77
2016-05-31T05:32:00.814Z,999.78
2016-05-31T05:33:01.082Z,999.82
2016-05-31T05:34:00.788Z,999.8
2016-05-31T05:35:00.776Z,999.84
2016-05-31T05:36:00.747Z,999.83
2016-05-31T05:37:00.687Z,999.86
2016-05-31T05:38:00.939Z,999.86
2016-05-31T05:39:00.801Z,999.88
2016-05-31T05:40:00.711Z,999.88
2016-05-31T05:41:00.666Z,999.87
2016-05-31T05:42:00.623Z,999.91
2016-05-31T05:44:00.581Z,999.9
2016-05-31T05:45:00.567Z,999.89
2016-05-31T05:48:00.497Z,999.9
2016-05-31T05:49:00.516Z,999.92
2016-05-31T05:50:00.471Z,999.9
2016-05-31T05:51:00.475Z,999.94
2016-05-31T05:52:00.430Z,999.95
2016-05-31T05:53:00.729Z,999.92
2016-05-31T05:54:00.530Z,999.99
2016-05-31T05:55:00.376Z,999.97
2016-05-31T05:56:00.363Z,999.97
2016-05-31T05:57:00.327Z,999.96
2016-05-31T05:58:00.357Z,1000.03
2016-05-31T05:59:00.355Z,999.95
2016-05-31T06:00:00.384Z,999.98
2016-05-31T06:01:00.382Z,1000.01
2016-05-31T06:02:00.312Z,1000.03
2016-05-31T06:03:00.355Z,1000.04
2016-05-31T06:04:00.352Z,1000.02
2016-05-31T06:05:00.365Z,1000.09
2016-05-31T06:06:00.330Z,1000.07
2016-05-31T06:07:00.308Z,1000.11
2016-05-31T06:08:00.299Z,1000.09
2016-05-31T06:09:00.306Z,1000.12
2016-05-31T06:11:00.240Z,1000.15
2016-05-31T06:12:00.213Z,1000.19
2016-05-31T06:13:00.216Z,1000.21
2016-05-31T06:15:00.179Z,1000.22
2016-05-31T06:16:00.182Z,1000.25
2016-05-31T06:17:00.139Z,1000.24
2016-05-31T06:20:00.070Z,1000.23
2016-05-31T06:21:06.307Z,1000.27
2016-05-31T06:22:00.311Z,1000.24
2016-05-31T06:23:01.141Z,1000.23
2016-05-31T06:24:00.034Z,1000.29
2016-05-31T06:24:59.960Z,1000.3
2016-05-31T06:25:59.946Z,1000.28
2016-05-31T06:26:59.918Z,1000.29
2016-05-31T06:27:59.920Z,1000.32
2016-05-31T06:28:59.907Z,1000.36
2016-05-31T06:29:59.832Z,1000.34
2016-05-31T06:30:59.850Z,1000.37
2016-05-31T06:31:59.837Z,1000.36
2016-05-31T06:32:59.808Z,1000.39
2016-05-31T06:33:59.812Z,1000.48
2016-05-31T06:34:59.876Z,1000.42
2016-05-31T06:35:59.754Z,1000.47
2016-05-31T06:36:59.725Z,1000.5
2016-05-31T06:38:00.135Z,1000.51
2016-05-31T06:38:59.700Z,1000.52
2016-05-31T06:39:59.670Z,1000.5
2016-05-31T06:40:59.642Z,1000.5
2016-05-31T06:41:59.630Z,1000.48
2016-05-31T06:42:59.601Z,1000.5
2016-05-31T06:43:59.588Z,1000.54
2016-05-31T06:44:59.559Z,1000.52
2016-05-31T06:46:59.534Z,1000.53
2016-05-31T06:47:59.505Z,1000.54
2016-05-31T06:48:59.477Z,1000.6
2016-05-31T06:49:59.464Z,1000.58
2016-05-31T06:51:59.438Z,1000.66
2016-05-31T06:52:59.424Z,1000.66
2016-05-31T06:54:59.396Z,1000.6
2016-05-31T06:55:59.949Z,1000.62
2016-05-31T06:56:59.433Z,1000.68
2016-05-31T06:58:59.329Z,1000.62
2016-05-31T06:59:59.301Z,1000.59
2016-05-31T07:00:59.444Z,1000.59
2016-05-31T07:01:59.368Z,1000.58
2016-05-31T07:02:59.246Z,1000.55
2016-05-31T07:03:59.279Z,1000.57
2016-05-31T07:04:59.220Z,1000.53
2016-05-31T07:05:59.176Z,1000.57
2016-05-31T07:06:59.115Z,1000.52
2016-05-31T07:07:59.681Z,1000.58
2016-05-31T07:08:59.121Z,1000.58
2016-05-31T07:09:59.015Z,1000.62
2016-05-31T07:10:59.048Z,1000.59
2016-05-31T07:11:59.020Z,1000.62
2016-05-31T07:12:59.006Z,1000.64
2016-05-31T07:13:58.948Z,1000.62
2016-05-31T07:14:58.981Z,1000.66
2016-05-31T07:15:58.937Z,1000.62
2016-05-31T07:16:58.924Z,1000.65
2016-05-31T07:17:59.270Z,1000.68
2016-05-31T07:18:58.866Z,1000.68
2016-05-31T07:19:58.870Z,1000.64
2016-05-31T07:20:58.872Z,1000.67
2016-05-31T07:21:58.828Z,1000.62
2016-05-31T07:22:59.440Z,1000.64
2016-05-31T07:23:58.834Z,1000.7
2016-05-31T07:24:58.758Z,1000.65
2016-05-31T07:26:58.732Z,1000.67
2016-05-31T07:27:58.704Z,1000.69
2016-05-31T07:28:58.675Z,1000.7
2016-05-31T07:30:58.634Z,1000.64
2016-05-31T07:31:58.652Z,1000.64
2016-05-31T07:33:00.030Z,1000.6
2016-05-31T07:33:59.267Z,1000.62
2016-05-31T07:34:58.551Z,1000.63
2016-05-31T07:35:58.568Z,1000.65
2016-05-31T07:36:58.540Z,1000.71
2016-05-31T07:37:58.512Z,1000.65
2016-05-31T07:38:58.562Z,1000.66
2016-05-31T07:39:58.470Z,1000.68
2016-05-31T07:40:58.426Z,1000.7
2016-05-31T07:41:58.429Z,1000.73
2016-05-31T07:42:58.650Z,1000.76
2016-05-31T07:43:58.528Z,1000.72
2016-05-31T07:44:58.358Z,1000.77
2016-05-31T07:45:58.331Z,1000.78
2016-05-31T07:46:58.334Z,1000.81
2016-05-31T07:47:58.305Z,1000.85
2016-05-31T07:48:58.291Z,1000.88
2016-05-31T07:49:58.263Z,1000.85
2016-05-31T07:50:58.266Z,1000.82
2016-05-31T07:51:58.253Z,1000.87
2016-05-31T07:52:58.161Z,1000.87
2016-05-31T07:53:58.149Z,1000.86
2016-05-31T07:55:58.155Z,1000.85
2016-05-31T07:56:58.157Z,1000.91
2016-05-31T07:57:58.410Z,1000.93
2016-05-31T07:58:58.334Z,1000.94
2016-05-31T07:59:58.071Z,1000.96
2016-05-31T08:00:58.058Z,1000.99
2016-05-31T08:01:58.030Z,1000.95
2016-05-31T08:02:58.016Z,1000.96
2016-05-31T08:03:58.643Z,1000.95
2016-05-31T08:04:57.960Z,1000.98
2016-05-31T08:06:57.918Z,1000.99
2016-05-31T08:11:57.823Z,1001.02
2016-05-31T08:12:57.825Z,1001.07
2016-05-31T08:13:57.936Z,1001.05
2016-05-31T08:14:57.784Z,1001.03
2016-05-31T08:15:57.755Z,1001.09
2016-05-31T08:16:57.742Z,1001.05
2016-05-31T08:17:57.728Z,1001.1
2016-05-31T08:18:57.700Z,1001.09
2016-05-31T08:19:57.686Z,1001.14
2016-05-31T08:20:57.689Z,1001.15
2016-05-31T08:21:57.630Z,1001.2
2016-05-31T08:22:57.617Z,1001.21
2016-05-31T08:23:57.588Z,1001.21
2016-05-31T08:24:57.591Z,1001.18
2016-05-31T08:25:57.578Z,1001.21
2016-05-31T08:26:57.488Z,1001.23
2016-05-31T08:27:57.505Z,1001.26
2016-05-31T08:28:57.493Z,1001.25
2016-05-31T08:30:57.467Z,1001.26
2016-05-31T08:31:57.469Z,1001.24
2016-05-31T08:32:57.363Z,1001.23
2016-05-31T08:33:57.428Z,1001.3
2016-05-31T08:34:57.399Z,1001.31
2016-05-31T08:35:57.340Z,1001.28
2016-05-31T08:37:57.315Z,1001.26
2016-05-31T08:38:57.317Z,1001.29
2016-05-31T08:39:57.273Z,1001.27
2016-05-31T08:40:57.306Z,1001.31
2016-05-31T08:42:57.484Z,1001.3
2016-05-31T08:44:57.786Z,1001.3
2016-05-31T08:45:57.195Z,1001.27
2016-05-31T08:46:57.181Z,1001.26
2016-05-31T08:47:57.294Z,1001.3
2016-05-31T08:48:57.140Z,1001.36
2016-05-31T08:49:57.081Z,1001.32
2016-05-31T08:50:57.083Z,1001.35
2016-05-31T08:51:57.039Z,1001.3
2016-05-31T08:52:57.025Z,1001.33
2016-05-31T08:53:57.138Z,1001.31
2016-05-31T08:54:56.938Z,1001.27
2016-05-31T08:55:56.972Z,1001.34
2016-05-31T08:56:56.974Z,1001.35
2016-05-31T08:57:56.961Z,1001.36
2016-05-31T08:58:57.371Z,1001.4
2016-05-31T08:59:56.888Z,1001.43
2016-05-31T09:00:56.813Z,1001.43
2016-05-31T09:01:56.894Z,1001.53
2016-05-31T09:02:56.771Z,1001.46
2016-05-31T09:03:56.790Z,1001.47
2016-05-31T09:04:56.824Z,1001.52
2016-05-31T09:05:56.810Z,1001.57
2016-05-31T09:06:56.798Z,1001.54
2016-05-31T09:07:56.785Z,1001.57
2016-05-31T09:09:56.681Z,1001.54
2016-05-31T09:10:56.621Z,1001.6
2016-05-31T09:11:56.889Z,1001.56
2016-05-31T09:12:56.642Z,1001.58
2016-05-31T09:13:56.629Z,1001.55
2016-05-31T09:14:56.585Z,1001.54
2016-05-31T09:17:56.764Z,1001.54
2016-05-31T09:18:56.768Z,1001.53
2016-05-31T09:19:56.489Z,1001.6
2016-05-31T09:20:56.476Z,1001.57
2016-05-31T09:21:56.478Z,1001.57
2016-05-31T09:22:56.436Z,1001.55
2016-05-31T09:23:56.655Z,1001.55
2016-05-31T09:24:56.378Z,1001.58
2016-05-31T09:25:56.380Z,1001.6
2016-05-31T09:26:56.367Z,1001.58
2016-05-31T09:27:56.354Z,1001.57
2016-05-31T09:28:56.327Z,1001.55
2016-05-31T09:29:56.297Z,1001.54
2016-05-31T09:30:56.300Z,1001.53
2016-05-31T09:31:56.209Z,1001.52
2016-05-31T09:32:56.322Z,1001.47
2016-05-31T09:33:56.245Z,1001.48
2016-05-31T09:34:56.202Z,1001.49
2016-05-31T09:35:56.188Z,1001.49
2016-05-31T09:36:56.487Z,1001.52
2016-05-31T09:37:56.147Z,1001.54
2016-05-31T09:38:56.119Z,1001.53
2016-05-31T09:39:56.106Z,1001.58
2016-05-31T09:40:56.109Z,1001.6
2016-05-31T09:41:56.079Z,1001.61
2016-05-31T09:42:56.035Z,1001.64
2016-05-31T09:43:56.037Z,1001.64
2016-05-31T09:44:56.009Z,1001.73
2016-05-31T09:45:55.981Z,1001.68
2016-05-31T09:46:55.921Z,1001.74
2016-05-31T09:47:55.955Z,1001.71
2016-05-31T09:48:55.926Z,1001.74
2016-05-31T09:49:55.929Z,1001.75
2016-05-31T09:50:56.323Z,1001.8
2016-05-31T09:51:55.872Z,1001.78
2016-05-31T09:52:55.859Z,1001.79
2016-05-31T09:53:55.846Z,1001.84
2016-05-31T09:54:56.067Z,1001.87
2016-05-31T09:55:55.805Z,1001.85
2016-05-31T09:56:55.839Z,1001.85
2016-05-31T09:57:55.747Z,1001.88
2016-05-31T09:58:55.985Z,1001.89
2016-05-31T09:59:55.799Z,1001.96
2016-05-31T10:00:55.709Z,1001.94
2016-05-31T10:01:55.696Z,1001.97
2016-05-31T10:02:55.668Z,1001.99
2016-05-31T10:03:55.670Z,1001.94
2016-05-31T10:04:55.641Z,1001.94
2016-05-31T10:05:55.659Z,1001.96
2016-05-31T10:06:55.585Z,1001.95
2016-05-31T10:07:55.571Z,1001.97
2016-05-31T10:08:55.543Z,1001.97
2016-05-31T10:09:55.467Z,1001.95
2016-05-31T10:10:55.533Z,1001.96
2016-05-31T10:11:55.504Z,1002
2016-05-31T10:12:55.476Z,1002.04
2016-05-31T10:14:55.590Z,1002.1
2016-05-31T10:15:55.436Z,1002.12
2016-05-31T10:16:55.377Z,1002.12
2016-05-31T10:17:55.364Z,1002.15
2016-05-31T10:18:55.382Z,1002.2
2016-05-31T10:19:55.416Z,1002.14
2016-05-31T10:20:55.326Z,1002.15
2016-05-31T10:21:55.375Z,1002.16
2016-05-31T10:22:55.564Z,1002.17
2016-05-31T10:23:55.271Z,1002.17
2016-05-31T10:25:55.244Z,1002.16
2016-05-31T10:27:55.188Z,1002.19
2016-05-31T10:31:55.371Z,1002.26
2016-05-31T10:32:55.107Z,1002.26
2016-05-31T10:33:55.094Z,1002.24
2016-05-31T10:34:55.035Z,1002.3
2016-05-31T10:35:55.021Z,1002.28
2016-05-31T10:36:54.993Z,1002.32
2016-05-31T10:37:54.980Z,1002.3
2016-05-31T10:38:54.983Z,1002.31
2016-05-31T10:39:54.954Z,1002.34
2016-05-31T10:40:54.941Z,1002.33
2016-05-31T10:41:55.398Z,1002.35
2016-05-31T10:42:54.931Z,1002.39
2016-05-31T10:43:54.871Z,1002.35
2016-05-31T10:44:54.843Z,1002.35
2016-05-31T10:45:54.829Z,1002.36
2016-05-31T10:46:54.817Z,1002.41
2016-05-31T10:47:54.789Z,1002.42
2016-05-31T10:48:54.931Z,1002.38
2016-05-31T10:49:54.763Z,1002.42
2016-05-31T10:50:54.750Z,1002.44
2016-05-31T10:51:54.721Z,1002.44
2016-05-31T10:52:54.848Z,1002.45
2016-05-31T10:53:54.694Z,1002.45
2016-05-31T10:54:54.651Z,1002.42
2016-05-31T10:55:54.669Z,1002.43
2016-05-31T10:56:54.719Z,1002.42
2016-05-31T10:57:54.597Z,1002.41
2016-05-31T10:58:54.739Z,1002.4
2016-05-31T10:59:54.555Z,1002.41
2016-05-31T11:00:54.574Z,1002.42
2016-05-31T11:01:54.560Z,1002.42
2016-05-31T11:04:57.584Z,1002.43
2016-05-31T11:05:55.040Z,1002.47
2016-05-31T11:06:55.043Z,1002.48
2016-05-31T11:07:54.451Z,1002.47
2016-05-31T11:08:55.424Z,1002.46
2016-05-31T11:09:54.926Z,1002.45
2016-05-31T11:10:54.381Z,1002.54
2016-05-31T11:11:54.368Z,1002.5
2016-05-31T11:12:54.340Z,1002.54
2016-05-31T11:13:54.670Z,1002.54
2016-05-31T11:14:54.299Z,1002.56
2016-05-31T11:15:54.254Z,1002.55
2016-05-31T11:16:54.273Z,1002.54
2016-05-31T11:17:54.213Z,1002.6
2016-05-31T11:18:54.231Z,1002.58
2016-05-31T11:19:54.187Z,1002.57
2016-05-31T11:20:54.189Z,1002.61
2016-05-31T11:21:54.176Z,1002.61
2016-05-31T11:22:54.133Z,1002.65
2016-05-31T11:23:54.104Z,1002.61
2016-05-31T11:24:54.106Z,1002.65
2016-05-31T11:25:54.078Z,1002.66
2016-05-31T11:26:54.003Z,1002.64
2016-05-31T11:27:54.052Z,1002.66
2016-05-31T11:28:54.024Z,1002.71
2016-05-31T11:29:53.995Z,1002.65
2016-05-31T11:30:53.982Z,1002.67
2016-05-31T11:31:53.953Z,1002.7
2016-05-31T11:32:53.955Z,1002.74
2016-05-31T11:33:53.866Z,1002.76
2016-05-31T11:35:53.918Z,1002.76
2016-05-31T11:36:54.029Z,1002.76
2016-05-31T11:37:53.798Z,1002.74
2016-05-31T11:39:54.412Z,1002.74
2016-05-31T11:40:54.166Z,1002.76
2016-05-31T11:41:53.777Z,1002.79
2016-05-31T11:42:53.779Z,1002.8
2016-05-31T11:43:53.752Z,1002.82
2016-05-31T11:44:53.754Z,1002.84
2016-05-31T11:45:53.710Z,1002.83
2016-05-31T11:46:53.729Z,1002.87
2016-05-31T11:47:53.653Z,1002.83
2016-05-31T11:48:53.639Z,1002.85
2016-05-31T11:49:53.642Z,1002.87
2016-05-31T11:50:53.614Z,1002.83
2016-05-31T11:51:53.695Z,1002.84
2016-05-31T11:52:53.557Z,1002.83
2016-05-31T11:53:53.559Z,1002.83
2016-05-31T11:54:53.547Z,1002.82
2016-05-31T11:55:53.752Z,1002.84
2016-05-31T11:56:53.489Z,1002.85
2016-05-31T11:57:53.477Z,1002.82
2016-05-31T11:58:53.464Z,1002.85
2016-05-31T11:59:53.482Z,1002.88
2016-05-31T12:00:53.516Z,1002.86
2016-05-31T12:01:53.393Z,1002.88
2016-05-31T12:02:53.411Z,1002.88
2016-05-31T12:03:53.353Z,1002.89
2016-05-31T12:04:53.371Z,1002.87
2016-05-31T12:05:53.327Z,1002.88
2016-05-31T12:06:53.297Z,1002.9
2016-05-31T12:07:53.299Z,1002.87
2016-05-31T12:08:53.882Z,1002.88
2016-05-31T12:09:53.260Z,1002.9
2016-05-31T12:10:53.230Z,1002.88
2016-05-31T12:11:53.218Z,1002.92
2016-05-31T12:13:53.176Z,1002.88
2016-05-31T12:15:53.134Z,1002.88
2016-05-31T12:17:53.687Z,1002.9
2016-05-31T12:18:54.486Z,1002.88
2016-05-31T12:19:53.051Z,1002.9
2016-05-31T12:20:53.039Z,1002.91
2016-05-31T12:21:53.057Z,1002.87
2016-05-31T12:22:53.279Z,1002.9
2016-05-31T12:23:53.047Z,1002.94
2016-05-31T12:24:52.970Z,1002.94
2016-05-31T12:25:52.958Z,1002.96
2016-05-31T12:26:53.258Z,1002.94
2016-05-31T12:27:52.948Z,1002.94
2016-05-31T12:28:52.919Z,1002.93
2016-05-31T12:29:52.906Z,1002.94
2016-05-31T12:30:52.862Z,1003
2016-05-31T12:31:52.833Z,1002.97
2016-05-31T12:32:52.852Z,1002.95
2016-05-31T12:33:52.885Z,1002.98
2016-05-31T12:34:52.826Z,1002.99
2016-05-31T12:35:52.797Z,1002.98
2016-05-31T12:36:52.738Z,1003.01
2016-05-31T12:37:52.725Z,1002.99
2016-05-31T12:38:52.962Z,1002.97
2016-05-31T12:39:52.699Z,1002.99
2016-05-31T12:40:52.670Z,1002.97
2016-05-31T12:41:52.673Z,1002.95
2016-05-31T12:42:52.629Z,1002.96
2016-05-31T12:43:52.616Z,1002.95
2016-05-31T12:44:52.587Z,1002.96
2016-05-31T12:45:52.606Z,1002.99
2016-05-31T12:46:52.592Z,1003
2016-05-31T12:47:52.564Z,1003
2016-05-31T12:48:52.521Z,1003
2016-05-31T12:49:52.507Z,1002.92
2016-05-31T12:52:52.671Z,1002.94
2016-05-31T12:53:52.627Z,1002.97
2016-05-31T12:54:52.614Z,1002.99
2016-05-31T12:55:52.398Z,1002.98
2016-05-31T12:56:52.386Z,1002.96
2016-05-31T12:57:52.372Z,1002.97
2016-05-31T12:58:52.328Z,1002.94
2016-05-31T12:59:52.331Z,1002.95
2016-05-31T13:00:52.442Z,1002.99
2016-05-31T13:01:52.305Z,1002.97
2016-05-31T13:02:52.277Z,1002.97
2016-05-31T13:03:52.233Z,1002.98
2016-05-31T13:04:52.235Z,1002.97
2016-05-31T13:05:52.222Z,1002.99
2016-05-31T13:06:52.193Z,1002.97
2016-05-31T13:07:52.119Z,1002.95
2016-05-31T13:08:52.183Z,1002.95
2016-05-31T13:09:52.139Z,1002.98
2016-05-31T13:10:52.126Z,1002.96
2016-05-31T13:11:52.144Z,1003
2016-05-31T13:12:52.099Z,1003
2016-05-31T13:14:52.074Z,1002.98
2016-05-31T13:15:52.108Z,1003.02
2016-05-31T13:16:52.048Z,1003.04
2016-05-31T13:17:52.535Z,1003.04
2016-05-31T13:18:52.007Z,1003.07
2016-05-31T13:19:52.072Z,1003.04
2016-05-31T13:20:53.106Z,1003.07
2016-05-31T13:21:51.921Z,1003.05
2016-05-31T13:22:51.956Z,1003.03
2016-05-31T13:23:51.926Z,1003.09
2016-05-31T13:24:51.867Z,1003.08
2016-05-31T13:25:51.853Z,1003.1
2016-05-31T13:26:51.904Z,1003.08
2016-05-31T13:29:51.818Z,1003.09
2016-05-31T13:30:52.367Z,1003.09
2016-05-31T13:31:53.229Z,1003.1
2016-05-31T13:32:51.748Z,1003.12
2016-05-31T13:33:51.703Z,1003.16
2016-05-31T13:34:51.706Z,1003.13
2016-05-31T13:35:51.661Z,1003.14
2016-05-31T13:36:51.821Z,1003.1
2016-05-31T13:37:52.324Z,1003.1
2016-05-31T13:38:51.638Z,1003.09
2016-05-31T13:39:51.672Z,1003.12
2016-05-31T13:40:51.582Z,1003.12
2016-05-31T13:41:51.771Z,1003.1
2016-05-31T13:42:51.572Z,1003.12
2016-05-31T13:43:51.543Z,1003.1
2016-05-31T13:44:51.593Z,1003.09
2016-05-31T13:45:51.939Z,1003.07
2016-05-31T13:46:51.457Z,1003.08
2016-05-31T13:47:52.522Z,1003.09
2016-05-31T13:48:51.525Z,1003.09
2016-05-31T13:49:51.466Z,1003.1
2016-05-31T13:50:51.406Z,1003.08